Pagrindinis puslapis
METAR-TAF:

METAR-TAF

Oro uostai :

Salvadoras, Bahija, Brazilija

platuma: 12-54S, ilguma: 038-20W, Aukštis: 6 m

Dabartinis oras

Ataskaita buvo paskelbta 14 minutes, ne 01:00 UTC
Vėjas 11 kt iš Rytų
Temperatūra 29°C
Drėgmė 79%
Slėgis 1014 hPa
Matomumas 10 km arba daugiau
Išsisklaidę debesys ne aukštis 2000 ft

METAR: SBSV 250100Z 10011KT 9999 SCT020 29/25 Q1014

Laikas: 22:14 (01:14 UTC)

Prognozė

Ataskaita buvo paskelbta 3 valandos ir 14 minutes, ne 22:00 UTC
Prognozė galioja nuo 25 metu 00 UTC su 25 metu 24 UTC
Vėjas 10 kt iš Rytų
Matomumas 10 km arba daugiau
Išsisklaidę debesys ne aukštis 2000 ft

TAF: SBSV 242200Z 2500/2524 09010KT 9999 SCT020 TN26/2509Z TX31/2517Z RMK PED

Orai ataskaitas ir orų prognozės (METAR, TAF).

turimą stotys yra geltonos ir raudonos taškus žemėlapyje.

Perkelti pele per norėdami pamatyti stoties vardą.

Tada spustelėkite, norėdami matyti oro stebėjimo ir prognozės.

Norėdami pakeisti žemėlapį: spustelėkite ant žalios mygtukų su juodo kryžiaus žemyn,; žalią mygtuką su brūkšneliu, jei norite nutolinti; arba žalių rodyklių gretimoms žemėlapius.


METAR-TAF: